Time;durP1;ratioP1;P1;durP2;ratioP2;P2;SDS_P1;SDS_P2;PMS_P1;PMS_P2;Temp;Humidity;BMP_temperature;BMP_pressure;BME280_temperature;BME280_humidity;BME280_pressure;Samples;Min_cycle;Max_cycle;Signal;HPM_P1;HPM_P2
2024/02/03 00:00:59;;;;;;;13.23;5.67;;;8.00;99.90;;;;;;4214796;28;20713;-81
2024/02/03 00:03:00;;;;;;;12.53;4.87;;;8.00;99.90;;;;;;4216284;28;20577;-82
2024/02/03 00:05:02;;;;;;;15.17;5.40;;;8.00;99.90;;;;;;4196093;28;20196;-82
2024/02/03 00:07:04;;;;;;;12.17;5.73;;;8.10;99.90;;;;;;4218137;28;20258;-81
2024/02/03 00:09:07;;;;;;;16.63;5.63;;;8.10;99.90;;;;;;4218609;28;20201;-81
2024/02/03 00:11:10;;;;;;;16.30;6.00;;;8.10;99.90;;;;;;4218719;28;20206;-82
2024/02/03 00:13:15;;;;;;;11.33;5.67;;;8.10;99.90;;;;;;4216357;28;20213;-81
2024/02/03 00:15:17;;;;;;;14.10;6.27;;;8.10;99.90;;;;;;4199085;28;20219;-80
2024/02/03 00:17:20;;;;;;;14.67;5.80;;;8.10;99.90;;;;;;4214484;28;20215;-80
2024/02/03 00:19:22;;;;;;;13.33;5.83;;;8.20;99.90;;;;;;4217747;28;20225;-81
2024/02/03 00:21:24;;;;;;;13.87;6.17;;;8.20;99.90;;;;;;4218497;28;20204;-79
2024/02/03 00:23:27;;;;;;;11.57;5.93;;;8.20;99.90;;;;;;4216065;28;20212;-80
2024/02/03 00:25:29;;;;;;;16.17;6.20;;;8.20;99.90;;;;;;4213218;28;20293;-81
2024/02/03 00:27:32;;;;;;;13.17;6.87;;;8.20;99.90;;;;;;4219441;28;20215;-82
2024/02/03 00:29:33;;;;;;;14.30;7.00;;;8.20;99.90;;;;;;4219487;28;20278;-79
2024/02/03 00:31:35;;;;;;;13.10;6.43;;;8.20;99.90;;;;;;4218608;28;20193;-80
2024/02/03 00:33:36;;;;;;;12.83;6.80;;;8.20;99.90;;;;;;4209885;28;20215;-82
2024/02/03 00:35:39;;;;;;;15.23;6.77;;;8.20;99.90;;;;;;4201169;28;20270;-81
2024/02/03 00:37:41;;;;;;;15.33;6.87;;;8.20;99.90;;;;;;4213563;28;20409;-80
2024/02/03 00:39:44;;;;;;;14.63;6.73;;;8.20;99.90;;;;;;4198875;28;20232;-80
2024/02/03 00:41:45;;;;;;;14.27;6.87;;;8.20;99.90;;;;;;4216786;28;20200;-80
2024/02/03 00:43:47;;;;;;;15.47;7.27;;;8.20;99.90;;;;;;4193626;28;20196;-80
2024/02/03 00:45:49;;;;;;;17.00;7.17;;;8.20;99.90;;;;;;4217570;28;20672;-80
2024/02/03 00:47:51;;;;;;;14.73;6.90;;;8.20;99.90;;;;;;4210205;28;20195;-80
2024/02/03 00:49:53;;;;;;;15.77;7.23;;;8.20;99.90;;;;;;4219154;28;20230;-80
2024/02/03 00:51:55;;;;;;;16.07;7.73;;;8.20;99.90;;;;;;4227648;28;20207;-81
2024/02/03 00:53:57;;;;;;;15.20;7.20;;;8.20;99.90;;;;;;4231454;28;20199;-80
2024/02/03 00:56:03;;;;;;;13.37;7.20;;;8.30;99.90;;;;;;4215602;28;21152;-80
2024/02/03 00:58:05;;;;;;;17.87;7.80;;;8.30;99.90;;;;;;4195146;28;20219;-81
2024/02/03 01:00:23;;;;;;;12.87;7.10;;;8.30;99.90;;;;;;4225935;28;20235;-81
2024/02/03 01:02:25;;;;;;;16.40;7.43;;;8.20;99.90;;;;;;4206040;28;20222;-79
2024/02/03 01:04:27;;;;;;;15.87;7.57;;;8.30;99.90;;;;;;4200801;28;20273;-81
2024/02/03 01:06:30;;;;;;;16.33;6.67;;;8.30;99.90;;;;;;4202811;28;20235;-82
2024/02/03 01:08:32;;;;;;;13.70;7.13;;;8.30;99.90;;;;;;4198598;28;20203;-80
2024/02/03 01:10:36;;;;;;;17.30;7.70;;;8.30;99.90;;;;;;4199644;28;20232;-80
2024/02/03 01:12:40;;;;;;;16.10;7.53;;;8.30;99.90;;;;;;4199413;28;20220;-80
2024/02/03 01:14:46;;;;;;;14.83;7.23;;;8.30;99.90;;;;;;4215372;28;20202;-80
2024/02/03 01:16:48;;;;;;;17.37;7.70;;;8.30;99.90;;;;;;4212365;28;20203;-81
2024/02/03 01:18:50;;;;;;;16.30;8.17;;;8.30;99.90;;;;;;4218534;28;20605;-80
2024/02/03 01:20:54;;;;;;;13.83;7.13;;;8.30;99.90;;;;;;4203638;28;20232;-80
2024/02/03 01:22:56;;;;;;;17.73;7.30;;;8.30;99.90;;;;;;4218250;28;20214;-80
2024/02/03 01:24:59;;;;;;;15.50;7.57;;;8.30;99.90;;;;;;4199712;28;20291;-79
2024/02/03 01:27:01;;;;;;;16.43;7.20;;;8.30;99.90;;;;;;4200111;28;20231;-80
2024/02/03 01:29:04;;;;;;;11.33;6.17;;;8.40;99.90;;;;;;4201070;28;20208;-80
2024/02/03 01:31:05;;;;;;;13.03;6.97;;;8.40;99.90;;;;;;4216860;28;20215;-80
2024/02/03 01:33:07;;;;;;;16.17;7.37;;;8.40;99.90;;;;;;4193720;28;20254;-80
2024/02/03 01:35:10;;;;;;;10.53;6.07;;;8.40;99.90;;;;;;4217466;28;20240;-79
2024/02/03 01:37:12;;;;;;;12.37;6.77;;;8.40;99.90;;;;;;4199993;28;20567;-80
2024/02/03 01:39:14;;;;;;;10.17;5.33;;;8.40;99.90;;;;;;4214875;28;20223;-80
2024/02/03 01:41:16;;;;;;;14.17;6.77;;;8.40;99.90;;;;;;4217406;28;20290;-80
2024/02/03 01:43:18;;;;;;;12.37;6.03;;;8.40;99.90;;;;;;4201206;28;20590;-80
2024/02/03 01:45:21;;;;;;;15.07;5.83;;;8.50;99.90;;;;;;4220475;28;20216;-81
2024/02/03 01:47:24;;;;;;;11.77;6.20;;;8.50;99.90;;;;;;4219674;28;20210;-80
2024/02/03 01:49:27;;;;;;;10.87;5.73;;;8.50;99.90;;;;;;4222765;28;20300;-82
2024/02/03 01:51:30;;;;;;;10.33;5.90;;;8.50;99.90;;;;;;4206795;28;20223;-80
2024/02/03 01:53:32;;;;;;;11.97;6.20;;;8.50;99.90;;;;;;4206316;28;20205;-82
2024/02/03 01:55:34;;;;;;;11.77;6.17;;;8.60;99.90;;;;;;4204162;28;20278;-81
2024/02/03 01:57:39;;;;;;;12.77;5.90;;;8.60;99.90;;;;;;4223905;28;20200;-81
2024/02/03 01:59:42;;;;;;;11.67;5.63;;;8.70;99.90;;;;;;4223274;28;20262;-82
2024/02/03 02:01:48;;;;;;;7.97;5.20;;;8.70;99.90;;;;;;4205368;28;20297;-81
2024/02/03 02:03:50;;;;;;;11.47;5.70;;;8.70;99.90;;;;;;4221124;28;20229;-80
2024/02/03 02:05:52;;;;;;;11.57;5.53;;;8.70;99.90;;;;;;4222409;28;20672;-81
2024/02/03 02:07:54;;;;;;;10.87;5.80;;;8.80;99.90;;;;;;4221423;28;20324;-80
2024/02/03 02:09:56;;;;;;;9.53;5.23;;;8.80;99.90;;;;;;4222129;28;20233;-79
2024/02/03 02:11:58;;;;;;;10.37;5.40;;;8.70;99.90;;;;;;4203854;28;20230;-80
2024/02/03 02:14:04;;;;;;;11.00;5.17;;;8.80;99.90;;;;;;4221667;28;20208;-80
2024/02/03 02:16:06;;;;;;;9.93;5.30;;;8.90;99.90;;;;;;4202176;28;20201;-80
2024/02/03 02:18:09;;;;;;;10.27;5.50;;;8.90;99.90;;;;;;4219385;28;20207;-81
2024/02/03 02:20:14;;;;;;;11.97;5.67;;;8.90;99.90;;;;;;4219533;28;20228;-81
2024/02/03 02:22:16;;;;;;;8.47;5.10;;;8.90;99.90;;;;;;4204244;28;20214;-81
2024/02/03 02:24:18;;;;;;;11.07;5.37;;;8.90;99.90;;;;;;4222389;28;20216;-81
2024/02/03 02:26:20;;;;;;;11.80;6.03;;;8.60;99.90;;;;;;4216795;28;20231;-80
2024/02/03 02:28:23;;;;;;;12.37;5.73;;;8.90;99.90;;;;;;4221129;28;20200;-81
2024/02/03 02:30:25;;;;;;;13.60;6.77;;;8.90;99.90;;;;;;4219465;28;20228;-81
2024/02/03 02:32:27;;;;;;;10.53;5.57;;;8.90;99.90;;;;;;4221235;28;20690;-82
2024/02/03 02:34:29;;;;;;;12.53;6.30;;;8.90;99.90;;;;;;4204045;28;20235;-81
2024/02/03 02:36:31;;;;;;;16.23;6.30;;;8.90;99.90;;;;;;4217699;28;20208;-81
2024/02/03 02:38:33;;;;;;;12.53;6.30;;;8.90;99.90;;;;;;4216365;28;20220;-82
2024/02/03 02:40:34;;;;;;;12.40;6.23;;;8.80;99.90;;;;;;4201749;28;20643;-82
2024/02/03 02:42:36;;;;;;;10.93;6.03;;;8.80;99.90;;;;;;4198255;28;20235;-80
2024/02/03 02:44:38;;;;;;;14.13;6.50;;;8.80;99.90;;;;;;4217620;28;20201;-80
2024/02/03 02:46:40;;;;;;;12.23;6.47;;;8.80;99.90;;;;;;4219657;28;20230;-80
2024/02/03 02:48:42;;;;;;;12.47;5.93;;;8.80;99.90;;;;;;4218807;28;20226;-79
2024/02/03 02:50:44;;;;;;;9.70;5.50;;;8.80;99.90;;;;;;4218517;28;20627;-80
2024/02/03 02:52:47;;;;;;;10.10;5.60;;;8.80;99.90;;;;;;4218315;28;20206;-80
2024/02/03 02:54:48;;;;;;;10.20;4.97;;;8.80;99.90;;;;;;4204815;28;20824;-80
2024/02/03 02:56:50;;;;;;;11.77;5.77;;;8.80;99.90;;;;;;4217845;28;20204;-80
2024/02/03 02:58:55;;;;;;;10.37;5.30;;;8.80;99.90;;;;;;4218149;28;20209;-80
2024/02/03 03:00:57;;;;;;;10.23;5.37;;;8.80;99.90;;;;;;4204006;28;20204;-81
2024/02/03 03:03:00;;;;;;;10.60;5.30;;;8.80;99.90;;;;;;4203052;28;20201;-81
2024/02/03 03:05:02;;;;;;;9.10;5.10;;;8.80;99.90;;;;;;4211845;28;20579;-80
2024/02/03 03:07:04;;;;;;;8.23;4.97;;;8.80;99.90;;;;;;4222031;28;20629;-82
2024/02/03 03:09:07;;;;;;;8.93;4.93;;;8.90;99.90;;;;;;4223584;28;20204;-81
2024/02/03 03:11:12;;;;;;;8.50;5.13;;;8.90;99.90;;;;;;4221755;28;20644;-81
2024/02/03 03:13:14;;;;;;;11.20;5.00;;;8.90;99.90;;;;;;4205364;28;20209;-79
2024/02/03 03:15:16;;;;;;;8.93;4.83;;;8.90;99.90;;;;;;4218334;28;20672;-80
2024/02/03 03:17:18;;;;;;;11.50;5.40;;;8.90;99.90;;;;;;4211684;28;20200;-82
2024/02/03 03:19:20;;;;;;;9.90;5.50;;;8.90;99.90;;;;;;4214172;28;20255;-80
2024/02/03 03:21:22;;;;;;;9.60;4.70;;;8.90;99.90;;;;;;4213413;28;20652;-81
2024/02/03 03:23:23;;;;;;;9.03;5.13;;;8.90;99.90;;;;;;4194404;28;20215;-80
2024/02/03 03:25:29;;;;;;;9.23;5.03;;;8.90;99.90;;;;;;4217657;28;20192;-81
2024/02/03 03:27:30;;;;;;;9.13;4.93;;;8.90;99.90;;;;;;4201842;28;20212;-81
2024/02/03 03:29:34;;;;;;;10.10;5.23;;;8.90;99.90;;;;;;4200030;28;20220;-80
2024/02/03 03:31:36;;;;;;;9.27;4.63;;;8.80;99.90;;;;;;4218668;28;20228;-80
2024/02/03 03:33:38;;;;;;;7.47;4.47;;;8.90;99.90;;;;;;4221005;28;20205;-80
2024/02/03 03:35:40;;;;;;;9.40;5.20;;;8.90;99.90;;;;;;4218371;28;20274;-80
2024/02/03 03:37:42;;;;;;;8.90;4.77;;;8.90;99.90;;;;;;4219741;28;20253;-80
2024/02/03 03:39:45;;;;;;;8.37;4.37;;;8.90;99.90;;;;;;4218632;28;20315;-80
2024/02/03 03:41:47;;;;;;;7.13;4.63;;;8.90;99.90;;;;;;4219403;28;20226;-80
2024/02/03 03:43:50;;;;;;;7.80;4.50;;;9.10;99.90;;;;;;4200851;28;20235;-80
2024/02/03 03:45:52;;;;;;;9.40;4.90;;;8.90;99.90;;;;;;4218963;28;20192;-80
2024/02/03 03:47:54;;;;;;;7.87;4.60;;;8.90;99.90;;;;;;4220253;28;20206;-80
2024/02/03 03:49:56;;;;;;;8.63;4.80;;;8.90;99.90;;;;;;4202057;28;20231;-80
2024/02/03 03:51:57;;;;;;;9.60;4.80;;;8.90;99.90;;;;;;4217315;28;20212;-80
2024/02/03 03:53:59;;;;;;;8.10;4.50;;;8.90;99.90;;;;;;4217034;28;20200;-81
2024/02/03 03:56:02;;;;;;;10.37;5.30;;;8.90;99.90;;;;;;4199624;28;20215;-81
2024/02/03 03:58:05;;;;;;;7.87;4.63;;;8.90;99.90;;;;;;4218395;28;20212;-80
2024/02/03 04:00:09;;;;;;;8.03;4.77;;;8.90;99.90;;;;;;4199236;28;20327;-82
2024/02/03 04:02:14;;;;;;;9.27;4.80;;;8.90;99.90;;;;;;4216839;28;20216;-80
2024/02/03 04:04:16;;;;;;;10.43;4.47;;;8.90;99.90;;;;;;4215125;28;20194;-80
2024/02/03 04:06:18;;;;;;;8.57;4.37;;;8.90;99.90;;;;;;4197791;28;20663;-80
2024/02/03 04:08:20;;;;;;;10.33;4.87;;;8.90;99.90;;;;;;4197542;28;20209;-80
2024/02/03 04:10:22;;;;;;;7.17;4.20;;;8.90;99.90;;;;;;4216567;28;20277;-80
2024/02/03 04:12:24;;;;;;;7.67;4.70;;;8.80;99.90;;;;;;4216462;28;20215;-80
2024/02/03 04:14:27;;;;;;;7.37;4.40;;;8.90;99.90;;;;;;4215706;28;20269;-80
2024/02/03 04:16:29;;;;;;;10.17;4.37;;;8.80;99.90;;;;;;4216480;28;20246;-81
2024/02/03 04:18:31;;;;;;;8.00;4.40;;;8.80;99.90;;;;;;4198482;28;20209;-80
2024/02/03 04:20:33;;;;;;;9.57;4.87;;;8.80;99.90;;;;;;4198178;28;20519;-80
2024/02/03 04:22:35;;;;;;;8.50;4.23;;;9.40;99.90;;;;;;4198067;28;20215;-82
2024/02/03 04:24:37;;;;;;;7.17;4.47;;;8.80;99.90;;;;;;4198389;28;20258;-80
2024/02/03 04:26:39;;;;;;;10.87;4.97;;;8.80;99.90;;;;;;4214740;28;20205;-80
2024/02/03 04:28:40;;;;;;;6.60;3.93;;;8.80;99.90;;;;;;4214417;28;20550;-80
2024/02/03 04:30:44;;;;;;;9.00;4.40;;;8.80;99.90;;;;;;4191349;28;20262;-80
2024/02/03 04:32:46;;;;;;;7.83;3.77;;;9.20;99.90;;;;;;4189871;28;20209;-78
2024/02/03 04:34:48;;;;;;;6.47;4.20;;;8.80;99.90;;;;;;4214404;28;20740;-81
2024/02/03 04:36:50;;;;;;;7.40;4.30;;;8.80;99.90;;;;;;4196392;28;20949;-82
2024/02/03 04:38:52;;;;;;;7.57;4.10;;;8.80;99.90;;;;;;4216573;28;20564;-81
2024/02/03 04:40:54;;;;;;;8.57;4.33;;;9.50;99.90;;;;;;4210401;28;20228;-81
2024/02/03 04:42:56;;;;;;;8.83;4.13;;;8.80;99.90;;;;;;4198917;28;20273;-80
2024/02/03 04:44:57;;;;;;;7.40;4.20;;;8.80;99.90;;;;;;4202595;28;20231;-80
2024/02/03 04:47:00;;;;;;;7.13;4.10;;;8.80;99.90;;;;;;4217769;28;20205;-82
2024/02/03 04:49:03;;;;;;;7.47;4.13;;;8.80;99.90;;;;;;4214667;28;20227;-80
2024/02/03 04:51:05;;;;;;;7.03;3.83;;;8.80;99.90;;;;;;4219106;28;20216;-80
2024/02/03 04:53:07;;;;;;;10.57;4.10;;;8.80;99.90;;;;;;4218048;28;20242;-81
2024/02/03 04:55:09;;;;;;;7.67;4.70;;;8.80;99.90;;;;;;4216339;28;20249;-80
2024/02/03 04:57:11;;;;;;;8.37;4.60;;;8.80;99.90;;;;;;4213128;28;20208;-81
2024/02/03 04:59:13;;;;;;;6.60;3.77;;;8.70;99.90;;;;;;4199118;28;20289;-80
2024/02/03 05:01:15;;;;;;;6.67;3.73;;;8.70;99.90;;;;;;4201417;28;20209;-80
2024/02/03 05:03:18;;;;;;;7.50;4.27;;;8.70;99.90;;;;;;4218382;28;20205;-81
2024/02/03 05:05:20;;;;;;;6.70;4.00;;;8.70;99.90;;;;;;4218447;28;20205;-80
2024/02/03 05:07:22;;;;;;;7.50;4.00;;;8.70;99.90;;;;;;4205985;28;20219;-80
2024/02/03 05:09:24;;;;;;;8.00;4.20;;;8.90;99.90;;;;;;4217885;28;20395;-80
2024/02/03 05:11:26;;;;;;;8.40;3.90;;;8.70;99.90;;;;;;4197547;28;20321;-80
2024/02/03 05:13:27;;;;;;;8.00;4.20;;;8.70;99.90;;;;;;4199439;28;20299;-80
2024/02/03 05:15:29;;;;;;;6.57;3.63;;;8.70;99.90;;;;;;4218161;28;20232;-80
2024/02/03 05:17:31;;;;;;;5.80;3.60;;;8.70;99.90;;;;;;4218325;28;20210;-80
2024/02/03 05:19:34;;;;;;;5.97;3.67;;;8.70;99.90;;;;;;4217649;28;20848;-80
2024/02/03 05:21:36;;;;;;;8.93;3.73;;;8.70;99.90;;;;;;4217573;28;20454;-79
2024/02/03 05:23:38;;;;;;;7.27;3.73;;;8.70;99.90;;;;;;4218078;28;20221;-78
2024/02/03 05:25:40;;;;;;;6.33;3.47;;;8.70;99.90;;;;;;4198005;28;20653;-80
2024/02/03 05:27:43;;;;;;;6.90;3.70;;;8.70;99.90;;;;;;4215680;28;20732;-80
2024/02/03 05:29:45;;;;;;;7.70;3.50;;;8.80;99.90;;;;;;4198482;28;20311;-82
2024/02/03 05:31:47;;;;;;;5.60;3.10;;;8.80;99.90;;;;;;4205504;28;20202;-82
2024/02/03 05:33:48;;;;;;;7.10;3.40;;;8.80;99.90;;;;;;4226608;28;20237;-81
2024/02/03 05:35:51;;;;;;;5.40;3.20;;;8.80;99.90;;;;;;4224159;28;20670;-81
2024/02/03 05:37:53;;;;;;;5.70;3.10;;;8.90;99.90;;;;;;4221539;28;20644;-81
2024/02/03 05:39:54;;;;;;;7.23;3.60;;;8.80;99.90;;;;;;4223062;28;20225;-81
2024/02/03 05:41:56;;;;;;;6.23;3.80;;;8.90;99.90;;;;;;4223759;28;20198;-81
2024/02/03 05:43:58;;;;;;;6.97;3.27;;;8.80;99.90;;;;;;4219749;28;20204;-81
2024/02/03 05:46:00;;;;;;;5.80;3.27;;;8.80;99.90;;;;;;4218921;28;20207;-81
2024/02/03 05:48:05;;;;;;;6.93;3.47;;;8.80;99.90;;;;;;4216032;28;20204;-81
2024/02/03 05:50:10;;;;;;;6.20;3.80;;;8.80;99.90;;;;;;4210314;28;20705;-81
2024/02/03 05:52:13;;;;;;;6.13;3.20;;;8.90;99.90;;;;;;4229880;28;20657;-82
2024/02/03 05:54:15;;;;;;;5.87;3.57;;;8.90;99.90;;;;;;4235014;28;20203;-81
2024/02/03 05:56:16;;;;;;;6.40;3.60;;;8.80;99.90;;;;;;4233028;28;20204;-81
2024/02/03 05:58:18;;;;;;;9.63;4.00;;;8.90;99.90;;;;;;4231653;28;20206;-81
2024/02/03 06:00:21;;;;;;;5.53;3.60;;;8.90;99.90;;;;;;4224420;28;20234;-81
2024/02/03 06:02:23;;;;;;;6.77;3.77;;;8.90;99.90;;;;;;4202606;28;20209;-82
2024/02/03 06:04:24;;;;;;;7.50;4.73;;;8.90;99.90;;;;;;4203431;28;20231;-81
2024/02/03 06:06:26;;;;;;;7.37;4.00;;;8.90;99.90;;;;;;4221113;28;20230;-81
2024/02/03 06:08:30;;;;;;;6.97;4.07;;;8.90;99.90;;;;;;4207975;28;20230;-81
2024/02/03 06:10:32;;;;;;;7.20;4.27;;;8.80;99.90;;;;;;4204266;28;20245;-81
2024/02/03 06:12:34;;;;;;;7.67;3.80;;;8.90;99.90;;;;;;4220321;28;20214;-81
2024/02/03 06:14:35;;;;;;;7.47;3.90;;;8.90;99.90;;;;;;4218891;28;20200;-80
2024/02/03 06:16:37;;;;;;;10.73;4.27;;;8.90;99.90;;;;;;4209192;28;20220;-79
2024/02/03 06:18:39;;;;;;;5.47;3.70;;;8.90;99.90;;;;;;4211277;28;20237;-79
2024/02/03 06:20:40;;;;;;;7.27;3.97;;;8.90;99.90;;;;;;4214111;28;20226;-81
2024/02/03 06:22:44;;;;;;;7.03;3.57;;;8.90;99.90;;;;;;4210410;28;20193;-82
2024/02/03 06:24:49;;;;;;;6.40;3.90;;;8.90;99.90;;;;;;4216141;28;20236;-81
2024/02/03 06:26:51;;;;;;;6.70;4.10;;;8.90;99.90;;;;;;4206067;28;20238;-81
2024/02/03 06:28:53;;;;;;;5.80;3.53;;;8.90;99.90;;;;;;4205959;28;20427;-81
2024/02/03 06:30:55;;;;;;;7.33;3.57;;;8.90;99.90;;;;;;4223026;28;20292;-81
2024/02/03 06:32:57;;;;;;;6.73;3.53;;;8.90;99.90;;;;;;4223281;28;20216;-81
2024/02/03 06:34:59;;;;;;;5.57;3.30;;;8.90;99.90;;;;;;4223033;28;20206;-81
2024/02/03 06:37:00;;;;;;;6.87;3.27;;;8.90;99.90;;;;;;4205532;28;20326;-81
2024/02/03 06:39:03;;;;;;;4.90;3.27;;;8.90;99.90;;;;;;4220345;28;20211;-82
2024/02/03 06:41:07;;;;;;;6.07;3.47;;;8.90;99.90;;;;;;4202081;28;20399;-81
2024/02/03 06:43:11;;;;;;;6.97;3.17;;;8.90;99.90;;;;;;4190457;28;20214;-82
2024/02/03 06:45:13;;;;;;;6.27;3.30;;;8.90;99.90;;;;;;4215056;28;20226;-80
2024/02/03 06:47:17;;;;;;;5.90;3.57;;;8.90;99.90;;;;;;4220037;28;20196;-80
2024/02/03 06:49:18;;;;;;;5.03;3.00;;;8.90;99.90;;;;;;4218849;28;20248;-79
2024/02/03 06:51:20;;;;;;;4.83;3.03;;;9.00;99.90;;;;;;4204441;28;20205;-79
2024/02/03 06:53:25;;;;;;;4.70;3.20;;;9.00;99.90;;;;;;4220688;28;20202;-81
2024/02/03 06:55:27;;;;;;;5.33;3.07;;;8.90;99.90;;;;;;4199952;28;20242;-80
2024/02/03 06:57:33;;;;;;;5.00;3.27;;;9.00;99.90;;;;;;4199253;28;20198;-81
2024/02/03 06:59:35;;;;;;;5.73;3.20;;;9.00;99.90;;;;;;4214878;28;20648;-81
2024/02/03 07:01:37;;;;;;;5.37;3.30;;;9.00;99.90;;;;;;4215233;28;20214;-81
2024/02/03 07:03:39;;;;;;;4.53;2.80;;;9.00;99.90;;;;;;4200550;28;20208;-80
2024/02/03 07:05:43;;;;;;;4.80;3.33;;;9.00;99.90;;;;;;4215787;28;20298;-80
2024/02/03 07:07:45;;;;;;;4.70;3.17;;;9.00;99.90;;;;;;4215770;28;20251;-81
2024/02/03 07:09:47;;;;;;;5.23;2.93;;;8.90;99.90;;;;;;4218688;28;20585;-79
2024/02/03 07:11:49;;;;;;;4.60;3.07;;;9.00;99.90;;;;;;4198486;28;20212;-79
2024/02/03 07:13:52;;;;;;;4.77;3.20;;;9.00;99.90;;;;;;4215332;28;20209;-80
2024/02/03 07:15:54;;;;;;;5.90;3.30;;;9.00;99.90;;;;;;4217626;28;20290;-81
2024/02/03 07:17:57;;;;;;;5.47;2.77;;;9.00;99.90;;;;;;4195495;28;20204;-79
2024/02/03 07:19:59;;;;;;;4.33;2.80;;;9.00;99.90;;;;;;4213010;28;20229;-82
2024/02/03 07:22:00;;;;;;;4.13;2.87;;;9.00;99.90;;;;;;4197609;28;20315;-81
2024/02/03 07:24:03;;;;;;;6.40;3.00;;;9.00;99.90;;;;;;4215833;28;20704;-78
2024/02/03 07:26:05;;;;;;;5.70;2.90;;;9.00;99.90;;;;;;4197224;28;20211;-79
2024/02/03 07:28:07;;;;;;;4.50;2.80;;;9.00;99.90;;;;;;4212565;28;20211;-79
2024/02/03 07:30:11;;;;;;;4.60;2.87;;;9.00;99.90;;;;;;4211925;28;20220;-80
2024/02/03 07:32:13;;;;;;;5.00;2.87;;;9.10;99.90;;;;;;4193362;28;20267;-79
2024/02/03 07:34:17;;;;;;;4.47;2.97;;;9.10;99.90;;;;;;4205261;28;20200;-79
2024/02/03 07:36:19;;;;;;;6.20;3.00;;;9.10;99.90;;;;;;4207861;28;20588;-79
2024/02/03 07:38:21;;;;;;;4.97;3.00;;;9.10;99.90;;;;;;4211150;28;20612;-79
2024/02/03 07:40:23;;;;;;;5.67;3.07;;;9.10;99.90;;;;;;4193647;28;20228;-79
2024/02/03 07:42:25;;;;;;;4.57;3.00;;;9.10;99.90;;;;;;4199303;28;20208;-79
2024/02/03 07:44:31;;;;;;;6.73;3.40;;;9.10;99.90;;;;;;4217643;28;20207;-79
2024/02/03 07:46:40;;;;;;;4.90;3.03;;;9.10;99.90;;;;;;4211172;28;20211;-79
2024/02/03 07:48:42;;;;;;;3.90;2.70;;;9.10;99.90;;;;;;4194977;28;20232;-78
2024/02/03 07:50:46;;;;;;;5.17;3.27;;;9.10;99.90;;;;;;4212929;28;20225;-80
2024/02/03 07:52:48;;;;;;;7.60;3.30;;;9.10;99.90;;;;;;4193578;28;20219;-80
2024/02/03 07:54:50;;;;;;;6.07;3.30;;;9.10;99.90;;;;;;4210455;28;20259;-79
2024/02/03 07:56:52;;;;;;;5.30;3.13;;;8.80;99.90;;;;;;4212372;28;20316;-81
2024/02/03 07:58:55;;;;;;;5.20;2.80;;;9.10;99.90;;;;;;4215352;28;20685;-82
2024/02/03 08:00:58;;;;;;;5.00;3.13;;;9.20;99.90;;;;;;4211460;28;20223;-81
2024/02/03 08:03:01;;;;;;;6.77;3.10;;;9.20;99.90;;;;;;4201724;28;20208;-81
2024/02/03 08:05:04;;;;;;;4.37;2.60;;;9.20;99.90;;;;;;4194086;28;20643;-80
2024/02/03 08:07:05;;;;;;;3.97;2.53;;;9.20;99.90;;;;;;4196907;28;20598;-81
2024/02/03 08:09:07;;;;;;;4.67;2.90;;;9.20;99.90;;;;;;4215616;28;20683;-82
2024/02/03 08:11:10;;;;;;;3.40;2.40;;;9.20;99.90;;;;;;4213224;28;20245;-81
2024/02/03 08:13:13;;;;;;;4.03;2.40;;;9.30;99.90;;;;;;4217927;28;20204;-81
2024/02/03 08:15:15;;;;;;;3.80;2.40;;;9.30;99.90;;;;;;4221237;28;20267;-81
2024/02/03 08:17:18;;;;;;;4.30;2.50;;;9.30;99.90;;;;;;4220972;28;20223;-81
2024/02/03 08:19:22;;;;;;;5.00;2.20;;;9.30;99.90;;;;;;4200569;28;20299;-81
2024/02/03 08:21:25;;;;;;;5.10;2.00;;;9.30;99.90;;;;;;4221601;28;20219;-81
2024/02/03 08:23:27;;;;;;;3.47;1.93;;;9.50;99.90;;;;;;4224819;28;20296;-80
2024/02/03 08:25:30;;;;;;;2.83;2.10;;;9.40;99.90;;;;;;4207423;28;20208;-82
2024/02/03 08:27:34;;;;;;;2.67;2.00;;;9.30;99.90;;;;;;4200292;28;20209;-82
2024/02/03 08:29:36;;;;;;;3.67;1.90;;;9.40;99.90;;;;;;4217893;28;20277;-81
2024/02/03 08:31:40;;;;;;;2.30;1.60;;;9.40;99.90;;;;;;4216380;28;20192;-80
2024/02/03 08:33:41;;;;;;;3.73;2.10;;;9.40;99.90;;;;;;4200209;28;20223;-81
2024/02/03 08:35:45;;;;;;;2.83;1.80;;;9.30;99.90;;;;;;4217009;28;20197;-80
2024/02/03 08:37:47;;;;;;;5.30;2.20;;;9.40;99.90;;;;;;4217504;28;20271;-80
2024/02/03 08:39:49;;;;;;;4.23;2.50;;;9.40;99.90;;;;;;4215959;28;20225;-80
2024/02/03 08:41:51;;;;;;;3.33;2.00;;;9.40;99.90;;;;;;4196559;28;20290;-81
2024/02/03 08:43:52;;;;;;;4.90;2.30;;;9.40;99.90;;;;;;4196273;28;20264;-82
2024/02/03 08:45:54;;;;;;;3.27;1.60;;;9.40;99.90;;;;;;4214945;28;20283;-80
2024/02/03 08:47:56;;;;;;;3.83;1.50;;;9.40;99.90;;;;;;4210157;28;20923;-78
2024/02/03 08:49:58;;;;;;;2.90;2.00;;;9.50;99.90;;;;;;4206036;28;20262;-78
2024/02/03 08:52:02;;;;;;;2.50;1.70;;;9.50;99.90;;;;;;4212737;28;20347;-80
2024/02/03 08:54:06;;;;;;;2.10;1.70;;;9.50;99.90;;;;;;4214054;28;20231;-78
2024/02/03 08:56:07;;;;;;;4.93;2.50;;;9.60;99.90;;;;;;4213365;28;20216;-80
2024/02/03 08:58:09;;;;;;;3.60;1.67;;;9.50;99.90;;;;;;4210139;28;20231;-80
2024/02/03 09:00:12;;;;;;;5.73;1.93;;;9.50;99.90;;;;;;4217591;28;20227;-80
2024/02/03 09:02:14;;;;;;;4.33;2.20;;;9.60;99.90;;;;;;4215174;28;20231;-80
2024/02/03 09:04:17;;;;;;;3.30;2.10;;;9.60;99.90;;;;;;4214164;28;20223;-80
2024/02/03 09:06:19;;;;;;;4.77;1.93;;;9.80;99.90;;;;;;4208185;28;20204;-80
2024/02/03 09:08:23;;;;;;;3.80;2.07;;;9.70;99.90;;;;;;4213300;28;20209;-79
2024/02/03 09:10:30;;;;;;;3.83;1.93;;;9.60;99.90;;;;;;4218146;28;20240;-80
2024/02/03 09:12:35;;;;;;;4.40;2.10;;;9.60;99.90;;;;;;4199122;28;20216;-80
2024/02/03 09:14:37;;;;;;;3.90;2.30;;;9.70;99.90;;;;;;4216225;28;20713;-77
2024/02/03 09:16:39;;;;;;;2.33;1.60;;;9.70;99.90;;;;;;4219181;28;20207;-81
2024/02/03 09:18:41;;;;;;;5.10;2.30;;;9.70;99.90;;;;;;4212588;28;20197;-81
2024/02/03 09:20:47;;;;;;;3.03;2.10;;;9.80;99.90;;;;;;4218120;28;20229;-78
2024/02/03 09:22:51;;;;;;;3.33;1.73;;;9.80;99.90;;;;;;4215833;28;20210;-81
2024/02/03 09:24:54;;;;;;;3.93;1.93;;;9.80;99.90;;;;;;4195740;28;20212;-81
2024/02/03 09:26:56;;;;;;;3.20;1.87;;;9.80;99.90;;;;;;4215933;28;20295;-79
2024/02/03 09:28:58;;;;;;;4.87;2.03;;;9.80;99.90;;;;;;4196107;28;20215;-81
2024/02/03 09:30:59;;;;;;;2.67;1.70;;;9.80;99.90;;;;;;4197594;28;20308;-82
2024/02/03 09:33:04;;;;;;;2.90;1.90;;;9.90;99.90;;;;;;4219999;28;20222;-81
2024/02/03 09:35:09;;;;;;;4.87;2.67;;;9.80;99.90;;;;;;4216454;28;20212;-81
2024/02/03 09:37:15;;;;;;;4.10;2.00;;;9.80;99.90;;;;;;4197401;28;20235;-81
2024/02/03 09:39:18;;;;;;;2.17;1.40;;;9.80;99.90;;;;;;4195088;28;20213;-80
2024/02/03 09:41:20;;;;;;;2.60;1.53;;;9.80;99.90;;;;;;4199040;28;20221;-79
2024/02/03 09:43:25;;;;;;;2.40;1.47;;;9.80;99.90;;;;;;4198565;28;20299;-79
2024/02/03 09:45:27;;;;;;;4.17;2.50;;;9.90;99.90;;;;;;4214838;28;20209;-78
2024/02/03 09:47:29;;;;;;;3.23;1.77;;;9.80;99.90;;;;;;4212461;28;20676;-78
2024/02/03 09:49:31;;;;;;;2.53;1.60;;;9.90;99.90;;;;;;4213314;28;20228;-78
2024/02/03 09:51:35;;;;;;;2.70;1.60;;;9.90;99.90;;;;;;4213195;28;20193;-79
2024/02/03 09:53:38;;;;;;;3.20;1.47;;;10.00;99.90;;;;;;4211975;28;20585;-78
2024/02/03 09:55:41;;;;;;;2.60;1.67;;;10.10;99.90;;;;;;4209925;28;20208;-79
2024/02/03 09:57:48;;;;;;;3.03;1.30;;;10.10;99.90;;;;;;4211530;28;20219;-78
2024/02/03 09:59:50;;;;;;;2.20;1.23;;;10.10;99.90;;;;;;4208572;28;20225;-77
2024/02/03 10:01:52;;;;;;;1.20;1.10;;;10.10;99.90;;;;;;4211517;28;20252;-79
2024/02/03 10:03:57;;;;;;;2.27;1.53;;;10.10;99.90;;;;;;4193758;28;20205;-79
2024/02/03 10:06:01;;;;;;;2.37;1.37;;;10.20;99.90;;;;;;4210029;28;20203;-78
2024/02/03 10:08:06;;;;;;;1.20;0.97;;;10.10;99.90;;;;;;4209950;28;20273;-80
2024/02/03 10:10:09;;;;;;;2.13;1.30;;;10.20;99.90;;;;;;4211648;28;20277;-79
2024/02/03 10:12:21;;;;;;;1.67;1.17;;;10.20;99.90;;;;;;4187511;28;20221;-78
2024/02/03 10:14:24;;;;;;;2.20;1.20;;;10.20;99.90;;;;;;4209528;28;20204;-80
2024/02/03 10:16:31;;;;;;;1.90;1.07;;;10.20;99.90;;;;;;4211168;28;20208;-79
2024/02/03 10:18:35;;;;;;;1.80;0.93;;;10.20;99.90;;;;;;4214178;28;20211;-83
2024/02/03 10:20:36;;;;;;;1.37;0.97;;;10.20;99.90;;;;;;4196760;28;20247;-80
2024/02/03 10:22:38;;;;;;;2.40;1.20;;;10.20;99.90;;;;;;4196498;28;20209;-79
2024/02/03 10:24:40;;;;;;;2.10;1.00;;;10.20;99.90;;;;;;4214050;28;20197;-83
2024/02/03 10:26:42;;;;;;;1.73;1.13;;;10.30;99.90;;;;;;4196872;28;21907;-78
2024/02/03 10:28:44;;;;;;;2.33;1.00;;;10.30;99.90;;;;;;4216329;28;20207;-80
2024/02/03 10:30:48;;;;;;;1.30;1.00;;;10.30;99.90;;;;;;4211748;28;20299;-82
2024/02/03 10:32:51;;;;;;;1.10;0.90;;;10.30;99.90;;;;;;4205315;28;20248;-80
2024/02/03 10:34:56;;;;;;;2.33;1.03;;;10.40;99.90;;;;;;4217713;28;20250;-79
2024/02/03 10:36:58;;;;;;;1.67;1.00;;;10.40;99.90;;;;;;4200019;28;20232;-85
2024/02/03 10:39:00;;;;;;;2.30;1.17;;;10.50;99.90;;;;;;4218192;28;20204;-83
2024/02/03 10:41:02;;;;;;;5.37;2.47;;;10.40;99.90;;;;;;4207532;28;20228;-82
2024/02/03 10:43:10;;;;;;;8.00;3.43;;;10.50;99.90;;;;;;4233085;28;20205;-83